Valldemossa, Spain

9:17 PM CET on January 23, 2017 (GMT +0100)
IPMVALLD5 | | Change Station
Active Advisory: >

Elev 1400 ft 39.71 °N, 2.63 °E | Updated 2 minutes ago

Rain
Rain
45.5 °F
Feels Like 44 °F
N
3.1
Wind Variable Wind from East
Gusts 6.9 mph

Today
High -- | Low -- °F
--% Chance of Precip.
Yesterday
High -- | Low -- °F
Precip. -- in
Pressure 29.98 in
Visibility 6.2 miles
Clouds Few 2000 ft
Mostly Cloudy 3000 ft
Windchill 44 °F
Dew Point 45 °F
Humidity 99%
Rainfall 0.79 in
Snow Depth Not available.
8:04 AM 5:58 PM
Waning Crescent, 16% visible
METAR LEPA 232000Z 02007KT 350V050 9999 FEW020TCU BKN030 10/08 Q1015 RERA NOSIG
Pressure 29.98 in
Visibility 6.2 miles
Clouds Few 2000 ft
Mostly Cloudy 3000 ft
Windchill 44 °F
Dew Point 45 °F
Humidity 99%
Rainfall 0.79 in
Snow Depth Not available.
8:04 AM 5:58 PM
Waning Crescent, 16% visible
METAR LEPA 232000Z 02007KT 350V050 9999 FEW020TCU BKN030 10/08 Q1015 RERA NOSIG

Get Your Daily Forecast Email!

Thanks for signing up!

Be on the lookout for a verification email in your inbox.

You'll start receiving the daily forecast at 8 AM.

×

10-Day Weather Forecast

×

Almanac

Astronomy

Jan. 23, 2017 Rise Set
Actual Time
Civil Twilight
Nautical Twilight
Astronomical Twilight
Moon
Length of Visible Light
Length of Day
Tomorrow will be .
, % of the Moon is Illuminated

Today's Extremes

Country Highs Country Lows

Community

WunderPhotos

Upload Photos

1,962,540 photos uploaded!

WunderBlog® & News

Nearby

Air Quality

  Air Quality AQ Index Pollutant
Not available.

Snow Depth

Station Depth Elevation

Earthquake Activity

City Distance Mag. Time & Date
Minimum magnitude displayed is 2.5.

Coastal Water Temperatures

Place Temperature

Stations

Nearby Weather Stations

Station Location Temp. Windchill Dew Point Humidity Wind Precip. Elev Updated Type